• Join FlightAware (Why Join?)
  • Login
  • US Flag 
06:17AM EDT


 

Airport Tracker/Info


-or-


 

Live Flight TrackerFlight Track Log ✈ SWA157 ✈ 24-Jul-2013 ✈ KSTL - KPHX

Flight Track Log - Related Links

Times and Time Zones

All times are in EDT time to prevent confusion due to time zone crossing. See the SWA157 flight status page for this flight to view local times or setup timezone preferences in your user account.

Time Position Orientation Groundspeed Altitude Reporting Facility
EDT Latitude Longitude Course Direction KTS MPH feet Rate Location/Type
11:15AM 38.7167 -90.3167 130° Southeast 178 205 2,000  Level Gateway (St. Louis) TRACON
11:16AM 38.6833 -90.2667 130° Southeast 226 260 4,000 2,220 Climbing Gateway (St. Louis) TRACON
11:16AM 38.6333 -90.2833 195° South 264 304 6,000 2,820 Climbing Gateway (St. Louis) TRACON
11:17AM 38.6000 -90.3667 243° Southwest 286 329 9,400 2,640 Climbing Gateway (St. Louis) TRACON
11:19AM 38.5597 -90.5075 250° West 314 361 12,400 2,280 Climbing Kansas City Center
11:20AM 38.5222 -90.6244 248° West 343 395 15,100 2,520 Climbing Kansas City Center
11:21AM 38.4767 -90.7561 246° West 386 444 17,700 2,400 Climbing Kansas City Center
11:22AM 38.4333 -90.8858 247° West 395 455 20,100 2,280 Climbing Kansas City Center
11:23AM 38.3878 -91.0217 247° West 406 467 22,500 2,160 Climbing Kansas City Center
11:24AM 38.3411 -91.1592 247° West 415 478 24,600 2,040 Climbing Kansas City Center
11:25AM 38.2836 -91.3292 247° West 428 493 26,800 1,860 Climbing Kansas City Center
11:26AM 38.2350 -91.4694 246° West 430 495 28,500 1,560 Climbing Kansas City Center
11:27AM 38.1867 -91.6119 247° West 433 498 30,000 720 Climbing Kansas City Center
11:28AM 38.1531 -91.7578 254° West 436 502 30,000 60 Level Kansas City Center
11:29AM 38.1456 -91.9033 266° West 423 487 30,200 1,380 Climbing Kansas City Center
11:30AM 38.1381 -92.0739 267° West 413 475 32,900 1,980 Climbing Kansas City Center
11:31AM 38.1303 -92.2172 266° West 412 474 34,400 1,260 Climbing Kansas City Center
11:32AM 38.1244 -92.3522 267° West 398 458 35,600 720 Climbing Kansas City Center
11:33AM 38.1197 -92.4903 268° West 394 453 36,000 420 Climbing Kansas City Center
11:34AM 38.1108 -92.6281 265° West 394 453 36,500 720 Climbing Kansas City Center
11:35AM 38.1008 -92.7833 265° West 384 442 37,600 720 Climbing Kansas City Center
11:36AM 38.0928 -92.9186 266° West 384 442 38,000 180 Climbing Kansas City Center
11:38AM 38.0853 -93.0553 266° West 386 444 38,000  Level Kansas City Center
11:39AM 38.0783 -93.1897 266° West 383 441 38,000  Level Kansas City Center
11:40AM 38.0700 -93.3242 266° West 383 441 38,000  Level Kansas City Center
11:41AM 38.0622 -93.4586 266° West 382 440 38,000  Level Kansas City Center
11:42AM 38.0528 -93.6206 266° West 383 441 38,000  Level Kansas City Center
11:43AM 38.0439 -93.7569 265° West 387 445 38,000  Level Kansas City Center
11:44AM 38.0358 -93.8933 266° West 387 445 38,000  Level Kansas City Center
11:45AM 38.0269 -94.0292 265° West 387 445 38,000  Level Kansas City Center
11:46AM 38.0186 -94.1664 266° West 387 445 38,000  Level Kansas City Center
11:47AM 38.0083 -94.3189 265° West 388 447 38,000  Level Kansas City Center
11:48AM 37.9997 -94.4506 265° West 389 448 38,000  Level Kansas City Center
11:49AM 37.9894 -94.6036 265° West 390 449 38,000  Level Kansas City Center
11:50AM 37.9792 -94.7353 264° West 390 449 38,000  Level Kansas City Center
11:51AM 37.9703 -94.8889 266° West 390 449 38,000  Level Kansas City Center
11:52AM 37.9600 -95.0228 264° West 395 455 38,000  Level Kansas City Center
11:53AM 37.9494 -95.1592 264° West 401 461 38,000  Level Kansas City Center
11:54AM 37.9381 -95.3158 265° West 399 459 38,000  Level Kansas City Center
11:55AM 37.9275 -95.4511 264° West 394 453 38,000  Level Kansas City Center
11:56AM 37.9172 -95.5906 265° West 394 453 38,000  Level Kansas City Center
11:57AM 37.9072 -95.7289 265° West 395 455 38,000  Level Kansas City Center
11:58AM 37.8928 -95.8981 264° West 401 461 38,000  Level Kansas City Center
11:59AM 37.8814 -96.0353 264° West 396 456 38,000  Level Kansas City Center
12:00PM 37.8722 -96.1533 264° West 391 450 38,000  Level Kansas City Center
12:01PM 37.8586 -96.3181 264° West 392 451 38,000  Level Kansas City Center
12:02PM 37.8469 -96.4544 264° West 392 451 38,000  Level Kansas City Center
12:03PM 37.8356 -96.5908 264° West 391 450 38,000  Level Kansas City Center
12:04PM 37.8233 -96.7278 264° West 391 450 38,000  Level Kansas City Center
12:05PM 37.8114 -96.8647 264° West 392 451 38,000  Level Kansas City Center
12:06PM 37.7989 -97.0022 263° West 394 453 38,000  Level Kansas City Center
12:07PM 37.7842 -97.1689 264° West 396 456 38,000  Level Kansas City Center
12:09PM 37.7708 -97.3094 263° West 400 460 38,000  Level Kansas City Center
12:10PM 37.7581 -97.4500 263° West 402 463 38,000  Level Kansas City Center
12:11PM 37.7450 -97.5756 263° West 397 457 38,000  Level Kansas City Center
12:12PM 37.7131 -97.7411 256° West 403 464 38,000  Level Kansas City Center
12:13PM 37.6881 -97.8794 257° West 403 464 38,000  Level Kansas City Center
12:14PM 37.6628 -98.0144 257° West 398 458 38,000  Level Kansas City Center
12:15PM 37.6386 -98.1408 256° West 396 456 38,000  Level Kansas City Center
12:16PM 37.6111 -98.2753 256° West 395 455 38,000  Level Kansas City Center
12:17PM 37.5797 -98.4389 256° West 398 458 38,000  Level Kansas City Center
12:18PM 37.5525 -98.5733 256° West 398 458 38,000  Level Kansas City Center
12:19PM 37.5247 -98.7097 256° West 399 459 38,000  Level Kansas City Center
12:20PM 37.4975 -98.8472 256° West 403 464 38,000  Level Kansas City Center
12:21PM 37.4697 -98.9833 256° West 402 463 38,000  Level Kansas City Center
12:22PM 37.4411 -99.1197 255° West 404 465 38,000  Level Kansas City Center
12:23PM 37.4053 -99.2836 255° West 404 465 38,000  Level Kansas City Center
12:24PM 37.3767 -99.4200 255° West 404 465 38,000  Level Kansas City Center
12:25PM 37.3500 -99.5606 257° West 398 458 38,000  Level Kansas City Center
12:26PM 37.3222 -99.6906 255° West 400 460 38,000  Level Kansas City Center
12:27PM 37.2906 -99.8400 255° West 397 457 38,000  Level Kansas City Center
12:28PM 37.2631 -99.9697 255° West 399 459 38,000  Level Kansas City Center
12:29PM 37.2303 -100.1208 255° West 401 461 38,000  Level Kansas City Center
12:30PM 37.2028 -100.2508 255° West 401 461 38,000  Level Kansas City Center
12:31PM 37.1692 -100.4033 255° West 404 465 38,000  Level Kansas City Center
12:32PM 37.1411 -100.5350 255° West 406 467 38,000  Level Kansas City Center
12:33PM 37.1111 -100.6664 254° West 407 468 38,000  Level Kansas City Center
12:34PM 37.0775 -100.8197 255° West 407 468 38,000  Level Kansas City Center
12:35PM 37.0481 -100.9519 254° West 409 471 38,000  Level Kansas City Center
12:36PM 37.0033 -101.1014 249° West 409 471 38,000  Level Kansas City Center
12:37PM 36.9633 -101.2294 249° West 412 474 38,000  Level Kansas City Center
12:39PM 36.9169 -101.3800 249° West 414 476 38,000  Level Kansas City Center
12:40PM 36.8758 -101.5097 248° West 417 480 38,000  Level Kansas City Center
12:41PM 36.8281 -101.6603 248° West 417 480 38,000  Level Kansas City Center
12:42PM 36.7872 -101.7906 249° West 420 483 38,000  Level Kansas City Center
12:43PM 36.7378 -101.9414 248° West 421 484 38,000  Level Kansas City Center
12:44PM 36.6967 -102.0717 249° West 421 484 38,000  Level Kansas City Center
12:45PM 36.6550 -102.2003 248° West 420 483 38,000  Level Kansas City Center
12:46PM 36.6050 -102.3542 248° West 418 481 38,000  Level Kansas City Center
12:47PM 36.5611 -102.4878 248° West 418 481 38,000  Level Kansas City Center
12:48PM 36.5089 -102.6475 248° West 417 480 38,000  Level Albuquerque Center
12:49PM 36.4667 -102.7792 248° West 414 476 38,000  Level Albuquerque Center
12:50PM 36.4211 -102.9164 248° West 414 476 38,000  Level Albuquerque Center
12:51PM 36.3881 -103.0797 256° West 414 476 38,000  Level Albuquerque Center
12:52PM 36.3586 -103.2186 255° West 413 475 38,000  Level Albuquerque Center
12:53PM 36.3297 -103.3589 256° West 416 479 38,000  Level Albuquerque Center
12:54PM 36.3011 -103.4983 256° West 417 480 38,000  Level Albuquerque Center
12:55PM 36.2722 -103.6394 256° West 418 481 38,000  Level Albuquerque Center
12:57PM 36.2377 -103.8039 255° West  Level FlightAware Approximate
12:57PM 36.2069 -103.9444 255° West 419 482 38,000  Level Albuquerque Center
12:58PM 36.1769 -104.0844 255° West 418 481 38,000  Level Albuquerque Center
12:59PM 36.1475 -104.2236 255° West 417 480 38,000  Level Albuquerque Center
01:00PM 36.1164 -104.3619 254° West 417 480 38,000  Level Albuquerque Center
01:01PM 36.0864 -104.5025 255° West 420 483 38,000  Level Albuquerque Center
01:03PM 36.0558 -104.6411 255° West 417 480 38,000  Level Albuquerque Center
01:04PM 36.0194 -104.8072 255° West 424 488 38,000  Level Albuquerque Center
01:05PM 35.9872 -104.9483 254° West 425 489 38,000  Level Albuquerque Center
01:06PM 35.9553 -105.0906 255° West 428 493 38,000  Level Albuquerque Center
01:07PM 35.9247 -105.2306 255° West 422 486 38,000  Level Albuquerque Center
01:08PM 35.8919 -105.3700 254° West 422 486 38,000  Level Albuquerque Center
01:09PM 35.8603 -105.5114 255° West 423 487 38,000  Level Albuquerque Center
01:10PM 35.8275 -105.6531 254° West 422 486 38,000  Level Albuquerque Center
01:11PM 35.7958 -105.7919 254° West 422 486 38,000  Level Albuquerque Center
01:12PM 35.7633 -105.9306 254° West 423 487 38,000  Level Albuquerque Center
01:13PM 35.7247 -106.0975 254° West 424 488 38,000  Level Albuquerque Center
01:14PM 35.6925 -106.2411 255° West 423 487 38,000  Level Albuquerque Center
01:15PM 35.6619 -106.3736 254° West 421 484 38,000  Level Albuquerque Center
01:16PM 35.6289 -106.5119 254° West 422 486 38,000  Level Albuquerque Center
01:17PM 35.5969 -106.6503 254° West 422 486 38,000  Level Albuquerque Center
01:18PM 35.5572 -106.8133 253° West 419 482 38,000  Level Albuquerque Center
01:19PM 35.5244 -106.9506 254° West 422 486 38,000  Level Albuquerque Center
01:20PM 35.4911 -107.0867 253° West 421 484 38,000  Level Albuquerque Center
01:21PM 35.4542 -107.2344 253° West 425 489 38,000  Level Albuquerque Center
01:22PM 35.4211 -107.3683 253° West 427 491 38,000  Level Albuquerque Center
01:23PM 35.3822 -107.5242 253° West 428 493 38,000  Level Albuquerque Center
01:24PM 35.3489 -107.6575 253° West 427 491 38,000  Level Albuquerque Center
01:25PM 35.3108 -107.8119 253° West 424 488 38,000  Level Albuquerque Center
01:26PM 35.2783 -107.9431 253° West 423 487 38,000  Level Albuquerque Center
01:27PM 35.2386 -108.0981 253° West 424 488 38,000  Level Albuquerque Center
01:28PM 35.2053 -108.2286 253° West 421 484 38,000  Level Albuquerque Center
01:29PM 35.1672 -108.3822 253° West 421 484 38,000  Level Albuquerque Center
01:30PM 35.1325 -108.5136 252° West 422 486 38,000  Level Albuquerque Center
01:31PM 35.0942 -108.6675 253° West 422 486 38,000  Level Albuquerque Center
01:33PM 35.0603 -108.7983 252° West 422 486 38,000 -180 Level Albuquerque Center
01:34PM 35.0256 -108.9294 252° West 423 487 37,700 -720 Descending Albuquerque Center
01:35PM 34.9864 -109.0819 253° West 421 484 36,600 -840 Descending Albuquerque Center
01:36PM 34.9478 -109.2139 250° West 428 493 36,000 -300 Descending Albuquerque Center
01:37PM 34.8917 -109.3625 245° Southwest 431 496 36,000  Level Albuquerque Center
01:38PM 34.8450 -109.4894 246° West 428 493 36,000  Level Albuquerque Center
01:39PM 34.7900 -109.6367 246° West 427 491 36,000  Level Albuquerque Center
01:40PM 34.7436 -109.7628 246° West 427 491 36,000  Level Albuquerque Center
01:41PM 34.6892 -109.9089 246° West 426 490 36,000  Level Albuquerque Center
01:42PM 34.6422 -110.0350 246° West 427 491 36,000 -780 Level Albuquerque Center
01:43PM 34.5975 -110.1639 247° West 430 495 34,500 -2,280 Descending Albuquerque Center
01:44PM 34.5431 -110.3117 246° West 429 494 31,400 -2,280 Descending Albuquerque Center
01:45PM 34.4947 -110.4286 243° Southwest 415 478 29,800 -1,800 Descending Albuquerque Center
01:46PM 34.4483 -110.5636 247° West 429 494 27,800 -2,040 Descending Albuquerque Center
01:47PM 34.3994 -110.6928 245° Southwest 424 488 25,700 -2,160 Descending Albuquerque Center
01:48PM 34.3281 -110.8328 238° Southwest 409 471 23,400 -2,100 Descending Albuquerque Center
01:49PM 34.2522 -110.9292 226° Southwest 397 457 21,400 -1,920 Descending Albuquerque Center
01:50PM 34.1786 -111.0231 227° Southwest 388 447 19,500 -1,800 Descending Albuquerque Center
01:51PM 34.1081 -111.1144 227° Southwest 378 435 17,700 -1,800 Descending Albuquerque Center
01:52PM 34.0394 -111.2031 227° Southwest 367 422 15,800 -1,800 Descending Albuquerque Center
01:53PM 33.9719 -111.2881 226° Southwest 354 407 14,100 -1,740 Descending Albuquerque Center
01:54PM 33.8947 -111.3883 227° Southwest 339 390 12,300 -1,500 Descending Albuquerque Center
01:55PM 33.8264 -111.4525 218° Southwest 310 357 11,100 -1,020 Descending Albuquerque Center
01:56PM 33.7578 -111.5111 215° Southwest 298 343 10,300 -780 Descending Albuquerque Center
01:57PM 33.6978 -111.5631 216° Southwest 269 310 9,500 -960 Descending Albuquerque Center
01:58PM 33.6406 -111.6128 216° Southwest 253 291 8,400 -1,020 Descending Albuquerque Center
01:59PM 33.5875 -111.6558 214° Southwest 230 265 7,500 -1,020 Descending Albuquerque Center
02:00PM 33.5369 -111.6989 215° Southwest 221 254 6,300 -1,080 Descending Albuquerque Center
02:01PM 33.4778 -111.7478 215° Southwest 213 245 5,300 -1,020 Descending Albuquerque Center
02:02PM 33.4492 -111.7972 235° Southwest 189 217 4,200 -1,020 Descending Albuquerque Center
02:04PM 33.4417 -111.8564 261° West 192 221 3,200 -1,020 Descending Albuquerque Center
02:04PM 33.4333 -111.9000 257° West 183 211 2,600 -900 Descending Phoenix TRACON
02:05PM 33.4333 -111.9500 270° West 147 169 1,800 -600 Descending Phoenix TRACON
02:07PM 33.4414 -111.9853 285° West 125 144 1,100 -480 Descending Albuquerque Center